Weather at Les Cèdres Water Aerodrome [CLOSED]

Public forecast

Using degrees Celsius for public forecast. Weather courtesy of forecast.io.

Closest aviation weather report (METAR) to Les Cèdres Water Aerodrome

Closest report is Montreal / Pierre Elliott Trudeau International Airport, 16.5 nm (30.5 km) NE.

2024/05/18 22:00 (retrieved 37 minutes ago)

CYUL 182200Z 10007G16KT 070V130 30SM FEW045 23/13 A2994 RMK CU2 SLP142 DENSITY ALT 1100FT

Closest aviation forecast (TAF) to Les Cèdres Water Aerodrome

Closest forecast is Montreal / Pierre Elliott Trudeau International Airport, 16.5 nm (30.5 km) NE.

2024/05/18 21:42 (retrieved 55 minutes ago)

TAF CYUL 182040Z 1821/1918 11010G20KT P6SM FEW040 BECMG 1822/1823 13010KT FM190100 13008KT P6SM FEW110 RMK NXT FCST BY 190000Z